createdAt,value
2023-05-29T00:00:06.462Z,15.43
2023-05-29T00:02:45.593Z,15.42
2023-05-29T00:05:19.778Z,15.38
2023-05-29T00:07:52.946Z,15.30
2023-05-29T00:10:27.621Z,15.23
2023-05-29T00:13:02.211Z,15.19
2023-05-29T00:15:35.726Z,15.15
2023-05-29T00:18:08.971Z,15.15
2023-05-29T00:20:42.229Z,15.15
2023-05-29T00:23:15.481Z,15.10
2023-05-29T00:25:50.060Z,15.06
2023-05-29T00:28:23.277Z,15.05
2023-05-29T00:30:56.423Z,15.00
2023-05-29T00:33:29.603Z,14.93
2023-05-29T00:36:02.862Z,14.91
2023-05-29T00:38:36.181Z,14.85
2023-05-29T00:41:15.015Z,14.77
2023-05-29T00:43:48.224Z,14.71
2023-05-29T00:46:22.650Z,14.65
2023-05-29T00:48:56.850Z,14.61
2023-05-29T00:51:32.475Z,14.57
2023-05-29T00:54:10.326Z,14.61
2023-05-29T00:56:45.551Z,14.54
2023-05-29T00:59:20.322Z,14.54
2023-05-29T01:01:55.286Z,14.48
2023-05-29T01:04:29.569Z,14.44
2023-05-29T01:07:03.465Z,14.40
2023-05-29T01:09:38.092Z,14.37
2023-05-29T01:12:25.513Z,14.28
2023-05-29T01:15:16.037Z,14.28
2023-05-29T01:18:05.385Z,14.28
2023-05-29T01:20:45.388Z,14.27
2023-05-29T01:23:45.524Z,14.18
2023-05-29T01:26:33.068Z,14.18
2023-05-29T01:29:09.902Z,14.14
2023-05-29T01:31:44.757Z,14.10
2023-05-29T01:34:18.047Z,14.09
2023-05-29T01:36:51.329Z,14.06
2023-05-29T01:39:25.884Z,14.03
2023-05-29T01:42:02.661Z,13.97
2023-05-29T01:44:37.387Z,13.86
2023-05-29T01:47:10.993Z,13.77
2023-05-29T01:49:45.669Z,13.74
2023-05-29T01:52:18.869Z,13.61
2023-05-29T01:54:55.136Z,13.48
2023-05-29T01:57:31.186Z,13.45
2023-05-29T02:00:10.005Z,13.36
2023-05-29T02:02:49.134Z,13.31
2023-05-29T02:05:22.670Z,13.34
2023-05-29T02:07:55.971Z,13.28
2023-05-29T02:10:29.287Z,13.22
2023-05-29T02:13:03.971Z,13.23
2023-05-29T02:15:37.212Z,13.15
2023-05-29T02:18:13.176Z,13.09
2023-05-29T02:20:49.330Z,13.09
2023-05-29T02:23:28.630Z,12.95
2023-05-29T02:26:01.810Z,12.95
2023-05-29T02:28:36.765Z,12.97
2023-05-29T02:31:10.164Z,12.88
2023-05-29T02:33:43.759Z,12.80
2023-05-29T02:36:17.574Z,12.74
2023-05-29T02:38:50.955Z,12.73
2023-05-29T02:41:24.223Z,12.71
2023-05-29T02:43:59.084Z,12.74
2023-05-29T02:46:32.483Z,12.71
2023-05-29T02:49:05.845Z,12.73
2023-05-29T02:51:39.561Z,12.71
2023-05-29T02:54:13.346Z,12.60
2023-05-29T02:56:47.575Z,12.51
2023-05-29T02:59:22.264Z,12.38
2023-05-29T03:01:55.926Z,12.41
2023-05-29T03:04:29.961Z,12.36
2023-05-29T03:07:03.174Z,12.38
2023-05-29T03:09:38.149Z,12.34
2023-05-29T03:12:13.910Z,12.25
2023-05-29T03:14:51.210Z,12.20
2023-05-29T03:17:24.378Z,12.20
2023-05-29T03:19:58.678Z,12.20
2023-05-29T03:22:31.910Z,12.16
2023-05-29T03:25:05.902Z,12.16
2023-05-29T03:27:40.697Z,12.13
2023-05-29T03:30:21.782Z,12.10
2023-05-29T03:32:56.717Z,12.09
2023-05-29T03:35:43.096Z,12.07
2023-05-29T03:38:16.329Z,12.03
2023-05-29T03:40:49.657Z,12.03
2023-05-29T03:43:22.908Z,12.06
2023-05-29T03:45:57.664Z,11.97
2023-05-29T03:48:31.789Z,11.95
2023-05-29T03:51:06.036Z,11.99
2023-05-29T03:53:42.664Z,12.00
2023-05-29T03:56:16.024Z,11.93
2023-05-29T03:58:49.209Z,11.96
2023-05-29T04:01:23.878Z,12.05
2023-05-29T04:03:57.480Z,11.93
2023-05-29T04:06:30.785Z,11.87
2023-05-29T04:09:04.084Z,12.00
2023-05-29T04:11:37.657Z,12.05
2023-05-29T04:14:10.835Z,12.12
2023-05-29T04:16:45.666Z,12.13
2023-05-29T04:19:19.926Z,12.13
2023-05-29T04:21:53.382Z,12.23
2023-05-29T04:24:26.646Z,12.27
2023-05-29T04:27:01.768Z,12.33
2023-05-29T04:29:36.134Z,12.36
2023-05-29T04:32:12.410Z,12.36
2023-05-29T04:34:46.081Z,12.36
2023-05-29T04:37:22.536Z,12.33
2023-05-29T04:39:55.773Z,12.36
2023-05-29T04:42:34.898Z,12.34
2023-05-29T04:45:11.630Z,12.46
2023-05-29T04:47:47.149Z,12.67
2023-05-29T04:50:20.453Z,12.51
2023-05-29T04:52:53.795Z,12.50
2023-05-29T04:55:26.964Z,12.83
2023-05-29T04:58:02.607Z,13.36
2023-05-29T05:00:35.944Z,13.49
2023-05-29T05:03:11.510Z,13.59
2023-05-29T05:05:45.999Z,13.67
2023-05-29T05:08:21.469Z,13.70
2023-05-29T05:10:54.862Z,13.72
2023-05-29T05:13:29.214Z,13.72
2023-05-29T05:16:02.843Z,13.69
2023-05-29T05:18:38.654Z,13.80
2023-05-29T05:21:14.510Z,13.79
2023-05-29T05:23:58.302Z,13.91
2023-05-29T05:26:32.950Z,13.76
2023-05-29T05:29:06.270Z,13.63
2023-05-29T05:31:41.130Z,14.00
2023-05-29T05:34:16.721Z,14.09
2023-05-29T05:36:51.362Z,14.04
2023-05-29T05:39:24.580Z,14.14
2023-05-29T05:41:58.782Z,14.49
2023-05-29T05:44:58.331Z,14.28
2023-05-29T05:47:31.899Z,14.27
2023-05-29T05:50:07.649Z,14.24
2023-05-29T05:52:40.934Z,14.51
2023-05-29T05:55:14.199Z,14.30
2023-05-29T05:57:47.542Z,14.64
2023-05-29T06:00:21.474Z,15.13
2023-05-29T06:02:54.591Z,14.81
2023-05-29T06:05:42.794Z,14.93
2023-05-29T06:08:16.380Z,15.26
2023-05-29T06:10:50.666Z,15.16
2023-05-29T06:13:23.840Z,15.69
2023-05-29T06:16:02.512Z,15.93
2023-05-29T06:18:36.732Z,16.17
2023-05-29T06:21:11.441Z,16.01
2023-05-29T06:23:50.724Z,16.25
2023-05-29T06:26:26.087Z,15.39
2023-05-29T06:29:00.971Z,15.91
2023-05-29T06:31:35.136Z,16.03
2023-05-29T06:34:08.412Z,15.60
2023-05-29T06:36:43.093Z,15.33
2023-05-29T06:39:19.082Z,15.46
2023-05-29T06:41:52.189Z,16.13
2023-05-29T06:44:25.449Z,16.42
2023-05-29T06:47:01.148Z,16.42
2023-05-29T06:49:34.438Z,16.35
2023-05-29T06:52:10.108Z,16.69
2023-05-29T06:55:02.363Z,16.90
2023-05-29T06:57:35.626Z,16.35
2023-05-29T07:00:11.961Z,16.59
2023-05-29T07:02:50.056Z,17.09
2023-05-29T07:05:23.730Z,16.85
2023-05-29T07:07:58.266Z,16.58
2023-05-29T07:10:31.417Z,16.10
2023-05-29T07:13:04.791Z,16.31
2023-05-29T07:15:39.790Z,16.68
2023-05-29T07:18:13.029Z,16.61
2023-05-29T07:20:46.661Z,16.45
2023-05-29T07:23:27.747Z,16.04
2023-05-29T07:26:02.456Z,16.01
2023-05-29T07:28:38.104Z,16.49
2023-05-29T07:31:11.359Z,16.72
2023-05-29T07:33:45.436Z,16.77
2023-05-29T07:36:21.217Z,17.46
2023-05-29T07:38:59.277Z,17.85
2023-05-29T07:41:32.850Z,17.57
2023-05-29T07:44:09.501Z,17.67
2023-05-29T07:46:42.770Z,17.50
2023-05-29T07:49:36.736Z,17.88
2023-05-29T07:52:10.422Z,17.55
2023-05-29T07:54:45.072Z,17.85
2023-05-29T07:57:19.608Z,17.02
2023-05-29T07:59:53.226Z,17.94
2023-05-29T08:02:27.553Z,17.88
2023-05-29T08:05:19.006Z,17.61
2023-05-29T08:07:52.293Z,17.98
2023-05-29T08:10:27.399Z,18.36
2023-05-29T08:13:00.726Z,17.74
2023-05-29T08:15:34.302Z,17.58
2023-05-29T08:18:08.044Z,18.18
2023-05-29T08:20:41.543Z,17.81
2023-05-29T08:23:14.825Z,17.63
2023-05-29T08:25:49.921Z,17.71
2023-05-29T08:28:27.405Z,17.84
2023-05-29T08:31:00.595Z,17.48
2023-05-29T08:33:34.035Z,17.74
2023-05-29T08:36:07.367Z,17.88
2023-05-29T08:38:40.676Z,18.65
2023-05-29T08:41:23.532Z,18.63
2023-05-29T08:43:58.290Z,18.43
2023-05-29T08:46:35.386Z,18.24
2023-05-29T08:49:11.080Z,18.05
2023-05-29T08:51:51.579Z,18.66
2023-05-29T08:54:25.895Z,17.85
2023-05-29T08:57:01.044Z,17.98
2023-05-29T08:59:35.504Z,18.77
2023-05-29T09:02:08.694Z,19.88
2023-05-29T09:04:46.059Z,19.38
2023-05-29T09:07:20.275Z,18.77
2023-05-29T09:09:53.423Z,19.18
2023-05-29T09:12:28.252Z,18.41
2023-05-29T09:15:01.551Z,18.42
2023-05-29T09:17:35.564Z,18.52
2023-05-29T09:20:18.985Z,18.52
2023-05-29T09:22:57.043Z,18.51
2023-05-29T09:25:32.903Z,18.43
2023-05-29T09:28:09.481Z,18.83
2023-05-29T09:30:44.017Z,19.00
2023-05-29T09:33:18.282Z,19.07
2023-05-29T09:35:52.307Z,19.59
2023-05-29T09:38:47.911Z,19.35
2023-05-29T09:41:24.822Z,19.28
2023-05-29T09:44:02.722Z,19.83
2023-05-29T09:46:36.892Z,19.50
2023-05-29T09:49:14.139Z,19.99
2023-05-29T09:51:50.001Z,19.55
2023-05-29T09:54:23.182Z,18.97
2023-05-29T09:56:58.116Z,18.90
2023-05-29T09:59:34.621Z,19.10
2023-05-29T10:02:12.567Z,19.51
2023-05-29T10:04:46.274Z,19.46
2023-05-29T10:07:27.922Z,19.57
2023-05-29T10:10:03.849Z,19.89
2023-05-29T10:12:40.611Z,20.06
2023-05-29T10:15:16.735Z,19.18
2023-05-29T10:17:53.749Z,19.47
2023-05-29T10:20:31.161Z,19.47
2023-05-29T10:23:06.783Z,19.41
2023-05-29T10:25:45.123Z,19.98
2023-05-29T10:28:18.470Z,20.12
2023-05-29T10:31:02.501Z,19.68
2023-05-29T10:34:00.640Z,20.40
2023-05-29T10:36:41.039Z,20.52
2023-05-29T10:39:14.456Z,20.67
2023-05-29T10:41:47.621Z,20.29
2023-05-29T10:44:41.229Z,20.20
2023-05-29T10:47:25.871Z,20.46
2023-05-29T10:50:02.713Z,20.73
2023-05-29T10:52:36.558Z,20.18
2023-05-29T10:55:12.751Z,19.61
2023-05-29T10:57:50.175Z,19.61
2023-05-29T11:00:25.711Z,19.65
2023-05-29T11:03:04.663Z,20.22
2023-05-29T11:05:58.352Z,20.83
2023-05-29T11:08:34.698Z,20.59
2023-05-29T11:11:07.884Z,20.16
2023-05-29T11:13:42.057Z,20.50
2023-05-29T11:16:21.321Z,20.37
2023-05-29T11:18:57.205Z,20.63
2023-05-29T11:21:35.632Z,21.31
2023-05-29T11:24:08.907Z,21.11
2023-05-29T11:26:42.648Z,21.17
2023-05-29T11:29:17.867Z,21.79
2023-05-29T11:32:00.080Z,21.28
2023-05-29T11:34:36.302Z,21.68
2023-05-29T11:37:10.011Z,21.74
2023-05-29T11:39:43.490Z,21.49
2023-05-29T11:42:17.894Z,21.92
2023-05-29T11:44:51.017Z,21.52
2023-05-29T11:47:25.499Z,22.32
2023-05-29T11:50:00.138Z,22.24
2023-05-29T11:52:33.340Z,22.54
2023-05-29T11:55:09.114Z,22.51
2023-05-29T11:57:42.426Z,22.80
2023-05-29T12:00:17.213Z,22.74
2023-05-29T12:02:51.070Z,22.17
2023-05-29T12:05:25.995Z,22.13
2023-05-29T12:08:02.101Z,21.51
2023-05-29T12:10:35.459Z,21.78
2023-05-29T12:13:08.661Z,21.68
2023-05-29T12:15:42.279Z,21.65
2023-05-29T12:18:16.895Z,22.29
2023-05-29T12:20:52.198Z,22.90
2023-05-29T12:23:25.461Z,22.64
2023-05-29T12:25:58.906Z,22.39
2023-05-29T12:28:32.117Z,22.61
2023-05-29T12:31:08.967Z,23.08
2023-05-29T12:33:45.731Z,22.83
2023-05-29T12:36:20.263Z,22.67
2023-05-29T12:38:54.658Z,21.69
2023-05-29T12:41:29.652Z,22.57
2023-05-29T12:44:05.048Z,22.88
2023-05-29T12:46:39.951Z,23.02
2023-05-29T12:49:17.275Z,22.88
2023-05-29T12:51:53.527Z,22.95
2023-05-29T12:54:26.760Z,21.69
2023-05-29T12:57:02.249Z,21.86
2023-05-29T12:59:35.793Z,22.43
2023-05-29T13:02:09.253Z,21.59
2023-05-29T13:04:42.476Z,21.63
2023-05-29T13:07:17.111Z,21.62
2023-05-29T13:09:50.392Z,21.74
2023-05-29T13:12:23.602Z,22.02
2023-05-29T13:14:57.356Z,22.81
2023-05-29T13:17:31.054Z,22.24
2023-05-29T13:20:09.172Z,22.40
2023-05-29T13:22:46.312Z,22.53
2023-05-29T13:25:21.444Z,23.02
2023-05-29T13:27:54.735Z,23.14
2023-05-29T13:30:28.140Z,22.74
2023-05-29T13:33:01.353Z,22.37
2023-05-29T13:35:34.564Z,22.68
2023-05-29T13:38:09.166Z,22.27
2023-05-29T13:40:42.437Z,21.96
2023-05-29T13:43:15.648Z,21.72
2023-05-29T13:45:51.211Z,21.95
2023-05-29T13:48:24.472Z,21.79
2023-05-29T13:50:57.626Z,22.17
2023-05-29T13:53:32.219Z,22.26
2023-05-29T13:56:08.573Z,21.72
2023-05-29T13:58:41.700Z,22.02
2023-05-29T14:01:16.385Z,22.29
2023-05-29T14:03:49.628Z,22.14
2023-05-29T14:06:22.942Z,22.41
2023-05-29T14:08:57.893Z,22.30
2023-05-29T14:11:31.145Z,22.35
2023-05-29T14:14:04.384Z,22.35
2023-05-29T14:16:37.861Z,22.49
2023-05-29T14:19:11.520Z,23.08
2023-05-29T14:21:45.532Z,22.61
2023-05-29T14:24:20.558Z,22.95
2023-05-29T14:26:53.914Z,22.59
2023-05-29T14:29:27.653Z,22.02
2023-05-29T14:32:00.821Z,21.59
2023-05-29T14:34:33.984Z,21.76
2023-05-29T14:37:09.777Z,21.75
2023-05-29T14:39:44.307Z,21.62
2023-05-29T14:42:18.384Z,21.86
2023-05-29T14:44:51.742Z,21.44
2023-05-29T14:47:24.991Z,21.72
2023-05-29T14:49:58.235Z,22.40
2023-05-29T14:52:31.570Z,22.59
2023-05-29T14:55:07.090Z,22.59
2023-05-29T14:57:40.336Z,22.30
2023-05-29T15:00:15.169Z,22.17
2023-05-29T15:02:48.466Z,22.05
2023-05-29T15:05:21.735Z,22.10
2023-05-29T15:07:57.612Z,21.63
2023-05-29T15:10:34.621Z,21.20
2023-05-29T15:13:08.456Z,21.48
2023-05-29T15:18:20.390Z,21.79
2023-05-29T15:20:54.955Z,21.56
2023-05-29T15:23:28.756Z,21.42
2023-05-29T15:26:04.411Z,21.32
2023-05-29T15:28:37.648Z,21.62
2023-05-29T15:31:10.907Z,21.46
2023-05-29T15:33:44.094Z,21.21
2023-05-29T15:36:20.263Z,21.37
2023-05-29T15:38:53.413Z,21.25
2023-05-29T15:41:30.035Z,21.07
2023-05-29T15:44:03.309Z,21.14
2023-05-29T15:46:36.576Z,21.07
2023-05-29T15:49:09.884Z,21.28
2023-05-29T15:51:43.860Z,20.95
2023-05-29T15:54:17.039Z,20.67
2023-05-29T15:56:51.575Z,20.16
2023-05-29T15:59:24.774Z,20.26
2023-05-29T16:01:57.974Z,20.32
2023-05-29T16:04:32.710Z,20.23
2023-05-29T16:07:07.088Z,20.80
2023-05-29T16:09:40.580Z,20.83
2023-05-29T16:12:15.267Z,21.00
2023-05-29T16:14:49.130Z,20.72
2023-05-29T16:17:22.307Z,20.76
2023-05-29T16:19:57.343Z,20.69
2023-05-29T16:22:41.831Z,20.69
2023-05-29T16:25:16.061Z,20.50
2023-05-29T16:27:50.699Z,20.83
2023-05-29T16:30:24.404Z,21.44
2023-05-29T16:32:57.582Z,21.59
2023-05-29T16:35:31.358Z,21.42
2023-05-29T16:38:04.623Z,20.98
2023-05-29T16:40:38.555Z,21.12
2023-05-29T16:43:13.073Z,20.97
2023-05-29T16:45:46.514Z,20.84
2023-05-29T16:48:19.777Z,20.57
2023-05-29T16:50:53.651Z,21.03
2023-05-29T16:53:26.961Z,20.69
2023-05-29T16:56:00.269Z,20.77
2023-05-29T16:58:35.021Z,20.97
2023-05-29T17:01:09.203Z,21.44
2023-05-29T17:03:42.557Z,21.44
2023-05-29T17:06:15.759Z,21.21
2023-05-29T17:08:48.870Z,21.27
2023-05-29T17:11:23.170Z,21.18
2023-05-29T17:13:57.799Z,20.84
2023-05-29T17:16:33.543Z,20.94
2023-05-29T17:19:07.299Z,20.70
2023-05-29T17:21:41.467Z,20.88
2023-05-29T17:24:14.878Z,20.84
2023-05-29T17:26:48.118Z,20.56
2023-05-29T17:29:22.628Z,20.93
2023-05-29T17:31:55.851Z,21.07
2023-05-29T17:34:29.101Z,21.28
2023-05-29T17:37:02.385Z,21.11
2023-05-29T17:39:35.560Z,21.01
2023-05-29T17:42:12.026Z,20.91
2023-05-29T17:44:46.501Z,20.50
2023-05-29T17:47:19.768Z,20.74
2023-05-29T17:49:52.934Z,20.66
2023-05-29T17:52:26.297Z,20.67
2023-05-29T17:54:59.462Z,20.54
2023-05-29T17:57:32.680Z,20.39
2023-05-29T18:00:09.176Z,20.56
2023-05-29T18:02:51.899Z,20.44
2023-05-29T18:05:25.078Z,20.62
2023-05-29T18:08:00.524Z,20.69
2023-05-29T18:10:33.754Z,20.56
2023-05-29T18:13:07.266Z,20.25
2023-05-29T18:15:41.801Z,19.99
2023-05-29T18:18:15.274Z,19.96
2023-05-29T18:20:48.582Z,19.68
2023-05-29T18:23:22.600Z,19.54
2023-05-29T18:25:56.165Z,19.54
2023-05-29T18:28:29.446Z,19.43
2023-05-29T18:31:04.006Z,19.39
2023-05-29T18:33:37.187Z,19.28
2023-05-29T18:36:11.946Z,19.27
2023-05-29T18:38:45.195Z,19.26
2023-05-29T18:41:18.486Z,19.17
2023-05-29T18:43:54.259Z,19.04
2023-05-29T18:46:28.955Z,19.00
2023-05-29T18:49:02.217Z,18.86
2023-05-29T18:51:36.106Z,18.74
2023-05-29T18:54:09.366Z,18.67
2023-05-29T18:56:42.571Z,18.57
2023-05-29T18:59:16.091Z,18.56
2023-05-29T19:01:50.840Z,18.53
2023-05-29T19:04:26.494Z,18.42
2023-05-29T19:06:59.791Z,18.36
2023-05-29T19:09:33.071Z,18.26
2023-05-29T19:12:07.793Z,18.13
2023-05-29T19:14:41.095Z,18.08
2023-05-29T19:17:16.748Z,18.00
2023-05-29T19:19:50.125Z,17.95
2023-05-29T19:22:24.029Z,17.84
2023-05-29T19:24:57.266Z,17.81
2023-05-29T19:27:30.696Z,17.77
2023-05-29T19:30:04.046Z,17.58
2023-05-29T19:32:39.091Z,17.48
2023-05-29T19:35:13.905Z,17.37
2023-05-29T19:37:48.940Z,17.26
2023-05-29T19:40:22.194Z,17.20
2023-05-29T19:42:55.396Z,17.20
2023-05-29T19:45:28.576Z,17.15
2023-05-29T19:48:03.454Z,17.05
2023-05-29T19:50:37.530Z,16.92
2023-05-29T19:53:12.563Z,16.80
2023-05-29T19:55:48.260Z,16.75
2023-05-29T19:58:23.829Z,16.71
2023-05-29T20:00:57.339Z,16.61
2023-05-29T20:03:34.022Z,16.64
2023-05-29T20:06:07.913Z,16.58
2023-05-29T20:08:41.120Z,16.52
2023-05-29T20:11:14.368Z,16.49
2023-05-29T20:13:47.518Z,16.38
2023-05-29T20:16:20.828Z,16.34
2023-05-29T20:18:55.364Z,16.31
2023-05-29T20:21:28.580Z,16.28
2023-05-29T20:24:02.260Z,16.20
2023-05-29T20:26:35.439Z,16.18
2023-05-29T20:29:08.687Z,16.10
2023-05-29T20:31:42.124Z,16.00
2023-05-29T20:34:18.872Z,16.00
2023-05-29T20:36:52.111Z,15.96
2023-05-29T20:39:28.150Z,15.91
2023-05-29T20:42:02.284Z,15.87
2023-05-29T20:44:36.125Z,15.79
2023-05-29T20:47:10.356Z,15.71
2023-05-29T20:49:45.005Z,15.66
2023-05-29T20:52:18.205Z,15.66
2023-05-29T20:54:51.418Z,15.67
2023-05-29T20:57:24.719Z,15.63
2023-05-29T20:59:57.956Z,15.56
2023-05-29T21:02:31.281Z,15.44
2023-05-29T21:05:08.353Z,15.39
2023-05-29T21:07:42.118Z,15.32
2023-05-29T21:10:15.502Z,15.29
2023-05-29T21:12:48.685Z,15.30
2023-05-29T21:15:22.237Z,15.25
2023-05-29T21:17:55.629Z,15.18
2023-05-29T21:20:30.252Z,15.10
2023-05-29T21:23:03.576Z,15.08
2023-05-29T21:25:36.779Z,15.05
2023-05-29T21:28:10.058Z,15.00
2023-05-29T21:30:45.528Z,14.93
2023-05-29T21:33:19.294Z,14.88
2023-05-29T21:35:53.966Z,14.87
2023-05-29T21:38:27.208Z,14.79
2023-05-29T21:41:00.679Z,14.71
2023-05-29T21:43:35.982Z,14.71
2023-05-29T21:46:11.971Z,14.65
2023-05-29T21:48:45.136Z,14.63
2023-05-29T21:51:19.828Z,14.54
2023-05-29T21:53:53.005Z,14.52
2023-05-29T21:56:27.582Z,14.44
2023-05-29T21:59:00.832Z,14.40
2023-05-29T22:01:34.088Z,14.40
2023-05-29T22:04:07.636Z,14.31
2023-05-29T22:06:42.632Z,14.27
2023-05-29T22:09:15.976Z,14.24
2023-05-29T22:11:50.448Z,14.23
2023-05-29T22:14:23.721Z,14.16
2023-05-29T22:16:59.605Z,14.09
2023-05-29T22:19:33.372Z,14.02
2023-05-29T22:22:07.953Z,14.00
2023-05-29T22:24:42.260Z,13.86
2023-05-29T22:27:16.045Z,13.82
2023-05-29T22:29:49.206Z,13.72
2023-05-29T22:32:22.441Z,13.72
2023-05-29T22:34:55.762Z,13.63
2023-05-29T22:37:30.658Z,13.66
2023-05-29T22:40:08.083Z,13.62
2023-05-29T22:42:41.415Z,13.55
2023-05-29T22:45:15.137Z,13.48
2023-05-29T22:47:48.484Z,13.43
2023-05-29T22:50:22.234Z,13.43
2023-05-29T22:52:57.743Z,13.39
2023-05-29T22:55:31.002Z,13.31
2023-05-29T22:58:04.346Z,13.26
2023-05-29T23:00:38.346Z,13.16
2023-05-29T23:03:11.665Z,13.23
2023-05-29T23:05:45.623Z,13.12
2023-05-29T23:08:20.371Z,13.02
2023-05-29T23:10:53.535Z,13.02
2023-05-29T23:13:26.947Z,12.94
2023-05-29T23:16:00.171Z,12.95
2023-05-29T23:18:33.468Z,12.97
2023-05-29T23:21:07.705Z,12.92
2023-05-29T23:23:42.329Z,12.92
2023-05-29T23:26:15.809Z,12.89
2023-05-29T23:28:48.962Z,12.83
2023-05-29T23:31:22.123Z,12.81
2023-05-29T23:33:55.377Z,12.78
2023-05-29T23:36:28.498Z,12.65
2023-05-29T23:39:03.020Z,12.60
2023-05-29T23:41:36.481Z,12.54
2023-05-29T23:44:10.076Z,12.44
2023-05-29T23:46:43.321Z,12.33
2023-05-29T23:49:16.485Z,12.34
2023-05-29T23:51:50.734Z,12.19
2023-05-29T23:54:25.401Z,12.26
2023-05-29T23:56:58.569Z,12.15
2023-05-29T23:59:31.699Z,12.15
